sensor_id;sensor_type;location;lat;lon;timestamp;temperature;humidity
27795;DHT22;15176;50.844;4.412;2023-02-04T00:01:43;11.80;99.90
27795;DHT22;15176;50.844;4.412;2023-02-04T00:04:11;12.00;99.90
27795;DHT22;15176;50.844;4.412;2023-02-04T00:06:37;12.00;99.90
27795;DHT22;15176;50.844;4.412;2023-02-04T00:09:03;11.80;99.90
27795;DHT22;15176;50.844;4.412;2023-02-04T00:11:29;11.70;99.90
27795;DHT22;15176;50.844;4.412;2023-02-04T00:13:54;11.80;99.90
27795;DHT22;15176;50.844;4.412;2023-02-04T00:16:20;11.80;99.90
27795;DHT22;15176;50.844;4.412;2023-02-04T00:18:46;11.80;99.90
27795;DHT22;15176;50.844;4.412;2023-02-04T00:21:12;12.00;99.90
27795;DHT22;15176;50.844;4.412;2023-02-04T00:23:40;12.10;99.90
27795;DHT22;15176;50.844;4.412;2023-02-04T00:26:06;12.10;99.90
27795;DHT22;15176;50.844;4.412;2023-02-04T00:28:32;12.10;99.90
27795;DHT22;15176;50.844;4.412;2023-02-04T00:30:58;12.20;99.90
27795;DHT22;15176;50.844;4.412;2023-02-04T00:33:24;12.30;99.90
27795;DHT22;15176;50.844;4.412;2023-02-04T00:35:49;12.20;99.90
27795;DHT22;15176;50.844;4.412;2023-02-04T00:38:15;12.30;99.90
27795;DHT22;15176;50.844;4.412;2023-02-04T00:40:41;12.10;99.90
27795;DHT22;15176;50.844;4.412;2023-02-04T00:43:07;12.20;99.90
27795;DHT22;15176;50.844;4.412;2023-02-04T00:45:32;12.20;99.90
27795;DHT22;15176;50.844;4.412;2023-02-04T00:47:58;12.20;99.90
27795;DHT22;15176;50.844;4.412;2023-02-04T00:50:24;12.10;99.90
27795;DHT22;15176;50.844;4.412;2023-02-04T00:52:49;12.20;99.90
27795;DHT22;15176;50.844;4.412;2023-02-04T00:55:16;12.20;99.90
27795;DHT22;15176;50.844;4.412;2023-02-04T00:57:43;12.10;99.90
27795;DHT22;15176;50.844;4.412;2023-02-04T01:00:13;12.00;99.90
27795;DHT22;15176;50.844;4.412;2023-02-04T01:02:39;12.20;99.90
27795;DHT22;15176;50.844;4.412;2023-02-04T01:05:06;12.40;99.90
27795;DHT22;15176;50.844;4.412;2023-02-04T01:07:33;12.60;99.90
27795;DHT22;15176;50.844;4.412;2023-02-04T01:09:59;12.80;99.90
27795;DHT22;15176;50.844;4.412;2023-02-04T01:12:24;13.00;99.90
27795;DHT22;15176;50.844;4.412;2023-02-04T01:14:52;13.10;99.90
27795;DHT22;15176;50.844;4.412;2023-02-04T01:17:18;13.10;99.90
27795;DHT22;15176;50.844;4.412;2023-02-04T01:19:44;13.20;99.90
27795;DHT22;15176;50.844;4.412;2023-02-04T01:22:10;13.10;99.90
27795;DHT22;15176;50.844;4.412;2023-02-04T01:24:36;12.50;99.90
27795;DHT22;15176;50.844;4.412;2023-02-04T01:27:02;12.50;99.90
27795;DHT22;15176;50.844;4.412;2023-02-04T01:29:28;12.70;99.90
27795;DHT22;15176;50.844;4.412;2023-02-04T01:31:53;12.70;99.90
27795;DHT22;15176;50.844;4.412;2023-02-04T01:34:19;12.90;99.90
27795;DHT22;15176;50.844;4.412;2023-02-04T01:36:45;12.80;99.90
27795;DHT22;15176;50.844;4.412;2023-02-04T01:39:10;12.80;99.90
27795;DHT22;15176;50.844;4.412;2023-02-04T01:41:36;12.70;99.90
27795;DHT22;15176;50.844;4.412;2023-02-04T01:44:02;12.60;99.90
27795;DHT22;15176;50.844;4.412;2023-02-04T01:46:28;12.50;99.90
27795;DHT22;15176;50.844;4.412;2023-02-04T01:48:54;12.40;99.90
27795;DHT22;15176;50.844;4.412;2023-02-04T01:51:25;12.30;99.90
27795;DHT22;15176;50.844;4.412;2023-02-04T01:53:53;12.70;99.90
27795;DHT22;15176;50.844;4.412;2023-02-04T01:56:24;12.60;99.90
27795;DHT22;15176;50.844;4.412;2023-02-04T01:58:54;12.10;99.90
27795;DHT22;15176;50.844;4.412;2023-02-04T02:01:37;12.20;99.90
27795;DHT22;15176;50.844;4.412;2023-02-04T02:04:03;12.30;99.90
27795;DHT22;15176;50.844;4.412;2023-02-04T02:06:30;12.60;99.90
27795;DHT22;15176;50.844;4.412;2023-02-04T02:08:56;12.60;99.90
27795;DHT22;15176;50.844;4.412;2023-02-04T02:11:23;12.40;99.90
27795;DHT22;15176;50.844;4.412;2023-02-04T02:13:50;12.30;99.90
27795;DHT22;15176;50.844;4.412;2023-02-04T02:16:16;12.10;99.90
27795;DHT22;15176;50.844;4.412;2023-02-04T02:18:42;12.10;99.90
27795;DHT22;15176;50.844;4.412;2023-02-04T02:21:11;11.90;99.90
27795;DHT22;15176;50.844;4.412;2023-02-04T02:23:54;12.00;99.90
27795;DHT22;15176;50.844;4.412;2023-02-04T02:26:25;12.10;99.90
27795;DHT22;15176;50.844;4.412;2023-02-04T02:28:51;12.20;99.90
27795;DHT22;15176;50.844;4.412;2023-02-04T02:31:20;12.00;99.90
27795;DHT22;15176;50.844;4.412;2023-02-04T02:33:47;12.10;99.90
27795;DHT22;15176;50.844;4.412;2023-02-04T02:36:13;12.00;99.90
27795;DHT22;15176;50.844;4.412;2023-02-04T02:38:39;11.90;99.90
27795;DHT22;15176;50.844;4.412;2023-02-04T02:41:05;11.80;99.90
27795;DHT22;15176;50.844;4.412;2023-02-04T02:43:34;11.80;99.90
27795;DHT22;15176;50.844;4.412;2023-02-04T02:46:01;11.80;99.90
27795;DHT22;15176;50.844;4.412;2023-02-04T02:48:27;12.00;99.90
27795;DHT22;15176;50.844;4.412;2023-02-04T02:50:52;12.00;99.90
27795;DHT22;15176;50.844;4.412;2023-02-04T02:53:19;12.10;99.90
27795;DHT22;15176;50.844;4.412;2023-02-04T02:55:46;12.10;99.90
27795;DHT22;15176;50.844;4.412;2023-02-04T02:58:17;12.20;99.90
27795;DHT22;15176;50.844;4.412;2023-02-04T03:00:43;12.20;99.90
27795;DHT22;15176;50.844;4.412;2023-02-04T03:03:19;12.20;99.90
27795;DHT22;15176;50.844;4.412;2023-02-04T03:05:50;12.00;99.90
27795;DHT22;15176;50.844;4.412;2023-02-04T03:08:16;11.60;99.90
27795;DHT22;15176;50.844;4.412;2023-02-04T03:10:44;11.90;99.90
27795;DHT22;15176;50.844;4.412;2023-02-04T03:13:11;11.80;99.90
27795;DHT22;15176;50.844;4.412;2023-02-04T03:15:38;12.10;99.90
27795;DHT22;15176;50.844;4.412;2023-02-04T03:18:05;12.00;99.90
27795;DHT22;15176;50.844;4.412;2023-02-04T03:20:31;12.10;99.90
27795;DHT22;15176;50.844;4.412;2023-02-04T03:22:57;12.30;99.90
27795;DHT22;15176;50.844;4.412;2023-02-04T03:25:24;12.40;99.90
27795;DHT22;15176;50.844;4.412;2023-02-04T03:27:51;12.30;99.90
27795;DHT22;15176;50.844;4.412;2023-02-04T03:30:23;12.60;99.90
27795;DHT22;15176;50.844;4.412;2023-02-04T03:32:49;12.80;99.90
27795;DHT22;15176;50.844;4.412;2023-02-04T03:35:16;12.90;99.90
27795;DHT22;15176;50.844;4.412;2023-02-04T03:37:42;12.70;99.90
27795;DHT22;15176;50.844;4.412;2023-02-04T03:40:08;12.60;99.90
27795;DHT22;15176;50.844;4.412;2023-02-04T03:42:34;12.90;99.90
27795;DHT22;15176;50.844;4.412;2023-02-04T03:45:00;13.00;99.90
27795;DHT22;15176;50.844;4.412;2023-02-04T03:47:26;13.10;99.90
27795;DHT22;15176;50.844;4.412;2023-02-04T03:49:51;13.30;99.90
27795;DHT22;15176;50.844;4.412;2023-02-04T03:52:17;13.30;99.90
27795;DHT22;15176;50.844;4.412;2023-02-04T03:54:44;13.30;99.90
27795;DHT22;15176;50.844;4.412;2023-02-04T03:57:10;13.20;99.90
27795;DHT22;15176;50.844;4.412;2023-02-04T03:59:36;13.10;99.90
27795;DHT22;15176;50.844;4.412;2023-02-04T04:02:02;13.20;99.90
27795;DHT22;15176;50.844;4.412;2023-02-04T04:04:27;13.40;99.90
27795;DHT22;15176;50.844;4.412;2023-02-04T04:06:53;13.50;99.90
27795;DHT22;15176;50.844;4.412;2023-02-04T04:09:19;13.60;99.90
27795;DHT22;15176;50.844;4.412;2023-02-04T04:11:45;13.60;99.90
27795;DHT22;15176;50.844;4.412;2023-02-04T04:14:11;13.60;99.90
27795;DHT22;15176;50.844;4.412;2023-02-04T04:16:37;13.70;99.90
27795;DHT22;15176;50.844;4.412;2023-02-04T04:19:03;13.80;99.90
27795;DHT22;15176;50.844;4.412;2023-02-04T04:21:29;13.80;99.90
27795;DHT22;15176;50.844;4.412;2023-02-04T04:23:55;13.70;99.90
27795;DHT22;15176;50.844;4.412;2023-02-04T04:26:21;13.70;99.90
27795;DHT22;15176;50.844;4.412;2023-02-04T04:28:47;13.60;99.90
27795;DHT22;15176;50.844;4.412;2023-02-04T04:31:12;13.60;99.90
27795;DHT22;15176;50.844;4.412;2023-02-04T04:33:38;13.70;99.90
27795;DHT22;15176;50.844;4.412;2023-02-04T04:36:04;13.60;99.90
27795;DHT22;15176;50.844;4.412;2023-02-04T04:38:32;13.60;99.90
27795;DHT22;15176;50.844;4.412;2023-02-04T04:40:57;13.70;99.90
27795;DHT22;15176;50.844;4.412;2023-02-04T04:43:23;13.80;99.90
27795;DHT22;15176;50.844;4.412;2023-02-04T04:45:49;13.90;99.90
27795;DHT22;15176;50.844;4.412;2023-02-04T04:48:14;13.90;99.90
27795;DHT22;15176;50.844;4.412;2023-02-04T04:50:40;13.80;99.90
27795;DHT22;15176;50.844;4.412;2023-02-04T04:53:06;13.70;99.90
27795;DHT22;15176;50.844;4.412;2023-02-04T04:55:36;13.60;99.90
27795;DHT22;15176;50.844;4.412;2023-02-04T04:58:03;13.70;99.90
27795;DHT22;15176;50.844;4.412;2023-02-04T05:00:29;13.80;99.90
27795;DHT22;15176;50.844;4.412;2023-02-04T05:02:55;13.80;99.90
27795;DHT22;15176;50.844;4.412;2023-02-04T05:05:20;13.80;99.90
27795;DHT22;15176;50.844;4.412;2023-02-04T05:07:46;13.80;99.90
27795;DHT22;15176;50.844;4.412;2023-02-04T05:10:12;13.80;99.90
27795;DHT22;15176;50.844;4.412;2023-02-04T05:12:37;13.80;99.90
27795;DHT22;15176;50.844;4.412;2023-02-04T05:15:04;13.70;99.90
27795;DHT22;15176;50.844;4.412;2023-02-04T05:17:29;13.60;99.90
27795;DHT22;15176;50.844;4.412;2023-02-04T05:19:55;13.50;99.90
27795;DHT22;15176;50.844;4.412;2023-02-04T05:22:21;13.60;99.90
27795;DHT22;15176;50.844;4.412;2023-02-04T05:24:46;13.80;99.90
27795;DHT22;15176;50.844;4.412;2023-02-04T05:27:13;13.80;99.90
27795;DHT22;15176;50.844;4.412;2023-02-04T05:29:38;13.90;99.90
27795;DHT22;15176;50.844;4.412;2023-02-04T05:32:05;14.00;99.90
27795;DHT22;15176;50.844;4.412;2023-02-04T05:34:31;13.80;99.90
27795;DHT22;15176;50.844;4.412;2023-02-04T05:36:56;13.80;99.90
27795;DHT22;15176;50.844;4.412;2023-02-04T05:39:22;13.90;99.90
27795;DHT22;15176;50.844;4.412;2023-02-04T05:41:48;14.00;99.90
27795;DHT22;15176;50.844;4.412;2023-02-04T05:44:13;13.90;99.90
27795;DHT22;15176;50.844;4.412;2023-02-04T05:46:39;13.80;99.90
27795;DHT22;15176;50.844;4.412;2023-02-04T05:49:05;13.80;99.90
27795;DHT22;15176;50.844;4.412;2023-02-04T05:51:32;13.80;99.90
27795;DHT22;15176;50.844;4.412;2023-02-04T05:53:57;13.90;99.90
27795;DHT22;15176;50.844;4.412;2023-02-04T05:56:23;13.80;99.90
27795;DHT22;15176;50.844;4.412;2023-02-04T05:58:50;13.70;99.90
27795;DHT22;15176;50.844;4.412;2023-02-04T06:01:17;13.70;99.90
27795;DHT22;15176;50.844;4.412;2023-02-04T06:03:43;13.70;99.90
27795;DHT22;15176;50.844;4.412;2023-02-04T06:06:08;13.70;99.90
27795;DHT22;15176;50.844;4.412;2023-02-04T06:08:34;13.80;99.90
27795;DHT22;15176;50.844;4.412;2023-02-04T06:11:00;13.90;99.90
27795;DHT22;15176;50.844;4.412;2023-02-04T06:13:25;13.80;99.90
27795;DHT22;15176;50.844;4.412;2023-02-04T06:15:51;13.80;99.90
27795;DHT22;15176;50.844;4.412;2023-02-04T06:18:17;13.70;99.90
27795;DHT22;15176;50.844;4.412;2023-02-04T06:20:42;13.70;99.90
27795;DHT22;15176;50.844;4.412;2023-02-04T06:23:08;13.70;99.90
27795;DHT22;15176;50.844;4.412;2023-02-04T06:25:34;13.70;99.90
27795;DHT22;15176;50.844;4.412;2023-02-04T06:28:00;13.70;99.90
27795;DHT22;15176;50.844;4.412;2023-02-04T06:30:25;13.60;99.90
27795;DHT22;15176;50.844;4.412;2023-02-04T06:32:51;13.60;99.90
27795;DHT22;15176;50.844;4.412;2023-02-04T06:35:17;13.60;99.90
27795;DHT22;15176;50.844;4.412;2023-02-04T06:37:43;13.60;99.90
27795;DHT22;15176;50.844;4.412;2023-02-04T06:40:10;13.70;99.90
27795;DHT22;15176;50.844;4.412;2023-02-04T06:42:36;13.70;99.90
27795;DHT22;15176;50.844;4.412;2023-02-04T06:45:02;13.80;99.90
27795;DHT22;15176;50.844;4.412;2023-02-04T06:47:28;13.80;99.90
27795;DHT22;15176;50.844;4.412;2023-02-04T06:49:53;13.70;99.90
27795;DHT22;15176;50.844;4.412;2023-02-04T06:52:19;13.70;99.90
27795;DHT22;15176;50.844;4.412;2023-02-04T06:54:45;13.80;99.90
27795;DHT22;15176;50.844;4.412;2023-02-04T06:57:11;13.70;99.90
27795;DHT22;15176;50.844;4.412;2023-02-04T06:59:40;13.70;99.90
27795;DHT22;15176;50.844;4.412;2023-02-04T07:02:09;13.70;99.90
27795;DHT22;15176;50.844;4.412;2023-02-04T07:04:35;13.60;99.90
27795;DHT22;15176;50.844;4.412;2023-02-04T07:07:01;13.50;99.90
27795;DHT22;15176;50.844;4.412;2023-02-04T07:09:27;13.30;99.90
27795;DHT22;15176;50.844;4.412;2023-02-04T07:11:54;13.30;99.90
27795;DHT22;15176;50.844;4.412;2023-02-04T07:14:20;13.40;99.90
27795;DHT22;15176;50.844;4.412;2023-02-04T07:16:45;13.40;99.90
27795;DHT22;15176;50.844;4.412;2023-02-04T07:19:11;13.40;99.90
27795;DHT22;15176;50.844;4.412;2023-02-04T07:21:37;13.30;99.90
27795;DHT22;15176;50.844;4.412;2023-02-04T07:24:03;13.20;99.90
27795;DHT22;15176;50.844;4.412;2023-02-04T07:26:28;13.30;99.90
27795;DHT22;15176;50.844;4.412;2023-02-04T07:28:54;13.20;99.90
27795;DHT22;15176;50.844;4.412;2023-02-04T07:31:20;13.20;99.90
27795;DHT22;15176;50.844;4.412;2023-02-04T07:33:45;13.10;99.90
27795;DHT22;15176;50.844;4.412;2023-02-04T07:36:11;13.10;99.90
27795;DHT22;15176;50.844;4.412;2023-02-04T07:38:37;13.20;99.90
27795;DHT22;15176;50.844;4.412;2023-02-04T07:41:03;13.30;99.90
27795;DHT22;15176;50.844;4.412;2023-02-04T07:43:28;13.30;99.90
27795;DHT22;15176;50.844;4.412;2023-02-04T07:45:54;13.40;99.90
27795;DHT22;15176;50.844;4.412;2023-02-04T07:48:20;13.30;99.90
27795;DHT22;15176;50.844;4.412;2023-02-04T07:50:45;13.30;99.90
27795;DHT22;15176;50.844;4.412;2023-02-04T07:53:11;13.40;99.90
27795;DHT22;15176;50.844;4.412;2023-02-04T07:55:37;13.10;99.90
27795;DHT22;15176;50.844;4.412;2023-02-04T07:58:03;13.00;99.90
27795;DHT22;15176;50.844;4.412;2023-02-04T08:00:29;13.40;99.90
27795;DHT22;15176;50.844;4.412;2023-02-04T08:02:55;13.40;99.90
27795;DHT22;15176;50.844;4.412;2023-02-04T08:05:20;13.30;99.90
27795;DHT22;15176;50.844;4.412;2023-02-04T08:07:46;13.20;99.90
27795;DHT22;15176;50.844;4.412;2023-02-04T08:10:14;13.20;99.90
27795;DHT22;15176;50.844;4.412;2023-02-04T08:12:39;13.30;99.90
27795;DHT22;15176;50.844;4.412;2023-02-04T08:15:05;13.50;99.90
27795;DHT22;15176;50.844;4.412;2023-02-04T08:17:34;13.30;99.90
27795;DHT22;15176;50.844;4.412;2023-02-04T08:20:00;13.40;99.90
27795;DHT22;15176;50.844;4.412;2023-02-04T08:22:26;13.40;99.90
27795;DHT22;15176;50.844;4.412;2023-02-04T08:24:52;13.40;99.90
27795;DHT22;15176;50.844;4.412;2023-02-04T08:27:18;13.50;99.90
27795;DHT22;15176;50.844;4.412;2023-02-04T08:29:43;13.50;99.90
27795;DHT22;15176;50.844;4.412;2023-02-04T08:32:09;13.60;99.90
27795;DHT22;15176;50.844;4.412;2023-02-04T08:34:38;13.60;99.90
27795;DHT22;15176;50.844;4.412;2023-02-04T08:37:03;13.60;99.90
27795;DHT22;15176;50.844;4.412;2023-02-04T08:39:29;13.50;99.90
27795;DHT22;15176;50.844;4.412;2023-02-04T08:41:55;13.30;99.90
27795;DHT22;15176;50.844;4.412;2023-02-04T08:44:21;13.20;99.90
27795;DHT22;15176;50.844;4.412;2023-02-04T08:46:47;13.10;99.90
27795;DHT22;15176;50.844;4.412;2023-02-04T08:49:13;13.00;99.90
27795;DHT22;15176;50.844;4.412;2023-02-04T08:51:40;13.20;99.90
27795;DHT22;15176;50.844;4.412;2023-02-04T08:54:08;13.30;99.90
27795;DHT22;15176;50.844;4.412;2023-02-04T08:56:33;13.40;99.90
27795;DHT22;15176;50.844;4.412;2023-02-04T08:59:00;13.50;99.90
27795;DHT22;15176;50.844;4.412;2023-02-04T09:01:25;13.60;99.90
27795;DHT22;15176;50.844;4.412;2023-02-04T09:03:51;13.60;99.90
27795;DHT22;15176;50.844;4.412;2023-02-04T09:06:18;13.60;99.90
27795;DHT22;15176;50.844;4.412;2023-02-04T09:08:44;13.60;99.90
27795;DHT22;15176;50.844;4.412;2023-02-04T09:11:09;13.80;99.90
27795;DHT22;15176;50.844;4.412;2023-02-04T09:13:37;13.90;99.90
27795;DHT22;15176;50.844;4.412;2023-02-04T09:16:04;13.80;99.90
27795;DHT22;15176;50.844;4.412;2023-02-04T09:18:29;13.80;99.90
27795;DHT22;15176;50.844;4.412;2023-02-04T09:20:57;13.30;99.90
27795;DHT22;15176;50.844;4.412;2023-02-04T09:23:23;12.90;99.90
27795;DHT22;15176;50.844;4.412;2023-02-04T09:25:49;12.40;99.90
27795;DHT22;15176;50.844;4.412;2023-02-04T09:28:15;12.50;99.90
27795;DHT22;15176;50.844;4.412;2023-02-04T09:30:42;12.70;99.90
27795;DHT22;15176;50.844;4.412;2023-02-04T09:33:09;12.60;99.90
27795;DHT22;15176;50.844;4.412;2023-02-04T09:35:36;12.30;99.90
27795;DHT22;15176;50.844;4.412;2023-02-04T09:38:02;12.50;99.90
27795;DHT22;15176;50.844;4.412;2023-02-04T09:40:34;12.60;99.90
27795;DHT22;15176;50.844;4.412;2023-02-04T09:43:02;12.40;99.90
27795;DHT22;15176;50.844;4.412;2023-02-04T09:45:31;12.60;99.90
27795;DHT22;15176;50.844;4.412;2023-02-04T09:48:02;12.60;99.90
27795;DHT22;15176;50.844;4.412;2023-02-04T09:50:29;12.50;99.90
27795;DHT22;15176;50.844;4.412;2023-02-04T09:53:03;12.60;99.90
27795;DHT22;15176;50.844;4.412;2023-02-04T09:55:36;12.80;99.90
27795;DHT22;15176;50.844;4.412;2023-02-04T09:58:04;13.00;99.90
27795;DHT22;15176;50.844;4.412;2023-02-04T10:00:30;13.20;99.90
27795;DHT22;15176;50.844;4.412;2023-02-04T10:02:59;13.50;99.90
27795;DHT22;15176;50.844;4.412;2023-02-04T10:05:30;13.50;99.90
27795;DHT22;15176;50.844;4.412;2023-02-04T10:07:57;13.50;99.90
27795;DHT22;15176;50.844;4.412;2023-02-04T10:10:24;13.50;99.90
27795;DHT22;15176;50.844;4.412;2023-02-04T10:12:54;13.50;99.90
27795;DHT22;15176;50.844;4.412;2023-02-04T10:15:20;13.50;99.90
27795;DHT22;15176;50.844;4.412;2023-02-04T10:17:50;13.70;99.90
27795;DHT22;15176;50.844;4.412;2023-02-04T10:20:18;13.70;99.90
27795;DHT22;15176;50.844;4.412;2023-02-04T10:22:48;13.60;99.90
27795;DHT22;15176;50.844;4.412;2023-02-04T10:25:16;13.60;99.90
27795;DHT22;15176;50.844;4.412;2023-02-04T10:27:47;13.60;99.90
27795;DHT22;15176;50.844;4.412;2023-02-04T10:30:25;13.10;99.90
27795;DHT22;15176;50.844;4.412;2023-02-04T10:32:52;13.00;99.90
27795;DHT22;15176;50.844;4.412;2023-02-04T10:35:19;13.30;99.90
27795;DHT22;15176;50.844;4.412;2023-02-04T10:37:46;13.50;99.90
27795;DHT22;15176;50.844;4.412;2023-02-04T10:40:43;13.80;99.90
27795;DHT22;15176;50.844;4.412;2023-02-04T10:43:14;13.80;99.90
27795;DHT22;15176;50.844;4.412;2023-02-04T10:45:45;13.60;99.90
27795;DHT22;15176;50.844;4.412;2023-02-04T10:48:18;13.70;99.90
27795;DHT22;15176;50.844;4.412;2023-02-04T10:50:45;13.70;99.90
27795;DHT22;15176;50.844;4.412;2023-02-04T10:53:15;13.60;99.90
27795;DHT22;15176;50.844;4.412;2023-02-04T10:56:00;13.60;99.90
27795;DHT22;15176;50.844;4.412;2023-02-04T10:58:28;13.70;99.90
27795;DHT22;15176;50.844;4.412;2023-02-04T11:00:55;13.90;99.90
27795;DHT22;15176;50.844;4.412;2023-02-04T11:03:23;13.90;99.90
27795;DHT22;15176;50.844;4.412;2023-02-04T11:05:50;13.70;99.90
27795;DHT22;15176;50.844;4.412;2023-02-04T11:08:24;13.60;99.90
27795;DHT22;15176;50.844;4.412;2023-02-04T11:11:18;13.60;99.90
27795;DHT22;15176;50.844;4.412;2023-02-04T11:14:16;13.50;99.90
27795;DHT22;15176;50.844;4.412;2023-02-04T11:16:47;13.50;99.90
27795;DHT22;15176;50.844;4.412;2023-02-04T11:19:13;13.50;99.90
27795;DHT22;15176;50.844;4.412;2023-02-04T11:21:44;13.40;99.90
27795;DHT22;15176;50.844;4.412;2023-02-04T11:26:38;13.20;99.90
27795;DHT22;15176;50.844;4.412;2023-02-04T11:36:54;13.30;99.90
27795;DHT22;15176;50.844;4.412;2023-02-04T11:42:23;13.40;99.90
27795;DHT22;15176;50.844;4.412;2023-02-04T11:45:10;13.40;99.90
27795;DHT22;15176;50.844;4.412;2023-02-04T11:47:37;13.40;99.90
27795;DHT22;15176;50.844;4.412;2023-02-04T11:50:21;13.60;99.90
27795;DHT22;15176;50.844;4.412;2023-02-04T11:52:52;13.50;99.90
27795;DHT22;15176;50.844;4.412;2023-02-04T11:55:18;13.30;99.90
27795;DHT22;15176;50.844;4.412;2023-02-04T11:57:45;13.30;99.90
27795;DHT22;15176;50.844;4.412;2023-02-04T12:00:19;13.90;99.90
27795;DHT22;15176;50.844;4.412;2023-02-04T12:02:58;14.50;99.90
27795;DHT22;15176;50.844;4.412;2023-02-04T12:05:44;14.90;99.90
27795;DHT22;15176;50.844;4.412;2023-02-04T12:11:23;14.80;99.90
27795;DHT22;15176;50.844;4.412;2023-02-04T12:13:56;15.00;99.90
27795;DHT22;15176;50.844;4.412;2023-02-04T12:16:22;14.90;99.90
27795;DHT22;15176;50.844;4.412;2023-02-04T12:18:49;14.80;99.90
27795;DHT22;15176;50.844;4.412;2023-02-04T12:21:16;14.60;99.90
27795;DHT22;15176;50.844;4.412;2023-02-04T12:23:43;14.50;99.90
27795;DHT22;15176;50.844;4.412;2023-02-04T12:26:09;14.40;99.90
27795;DHT22;15176;50.844;4.412;2023-02-04T12:28:34;14.40;99.90
27795;DHT22;15176;50.844;4.412;2023-02-04T12:31:02;14.30;99.90
27795;DHT22;15176;50.844;4.412;2023-02-04T12:33:28;14.10;99.90
27795;DHT22;15176;50.844;4.412;2023-02-04T12:35:53;14.10;99.90
27795;DHT22;15176;50.844;4.412;2023-02-04T12:38:20;14.00;99.90
27795;DHT22;15176;50.844;4.412;2023-02-04T12:40:46;13.80;99.90
27795;DHT22;15176;50.844;4.412;2023-02-04T12:43:11;14.10;99.90
27795;DHT22;15176;50.844;4.412;2023-02-04T12:45:37;14.10;99.90
27795;DHT22;15176;50.844;4.412;2023-02-04T12:48:04;14.20;99.90
27795;DHT22;15176;50.844;4.412;2023-02-04T12:50:30;14.10;99.90
27795;DHT22;15176;50.844;4.412;2023-02-04T12:52:57;14.00;99.90
27795;DHT22;15176;50.844;4.412;2023-02-04T12:55:25;14.00;99.90
27795;DHT22;15176;50.844;4.412;2023-02-04T12:57:52;13.80;99.90
27795;DHT22;15176;50.844;4.412;2023-02-04T13:00:20;13.70;99.90
27795;DHT22;15176;50.844;4.412;2023-02-04T13:02:46;13.50;99.90
27795;DHT22;15176;50.844;4.412;2023-02-04T13:05:12;13.50;99.90
27795;DHT22;15176;50.844;4.412;2023-02-04T13:07:39;13.60;99.90
27795;DHT22;15176;50.844;4.412;2023-02-04T13:10:06;13.50;99.90
27795;DHT22;15176;50.844;4.412;2023-02-04T13:12:33;13.40;99.90
27795;DHT22;15176;50.844;4.412;2023-02-04T13:14:59;13.40;99.90
27795;DHT22;15176;50.844;4.412;2023-02-04T13:17:24;13.40;99.90
27795;DHT22;15176;50.844;4.412;2023-02-04T13:19:50;13.50;99.90
27795;DHT22;15176;50.844;4.412;2023-02-04T13:22:16;13.60;99.90
27795;DHT22;15176;50.844;4.412;2023-02-04T13:24:42;13.60;99.90
27795;DHT22;15176;50.844;4.412;2023-02-04T13:27:07;13.60;99.90
27795;DHT22;15176;50.844;4.412;2023-02-04T13:29:33;13.70;99.90
27795;DHT22;15176;50.844;4.412;2023-02-04T13:31:59;13.70;99.90
27795;DHT22;15176;50.844;4.412;2023-02-04T13:34:24;13.60;99.90
27795;DHT22;15176;50.844;4.412;2023-02-04T13:36:50;13.50;99.90
27795;DHT22;15176;50.844;4.412;2023-02-04T13:39:16;13.40;99.90
27795;DHT22;15176;50.844;4.412;2023-02-04T13:41:41;13.40;99.90
27795;DHT22;15176;50.844;4.412;2023-02-04T13:44:07;13.50;99.90
27795;DHT22;15176;50.844;4.412;2023-02-04T13:46:33;13.60;99.90
27795;DHT22;15176;50.844;4.412;2023-02-04T13:48:59;13.60;99.90
27795;DHT22;15176;50.844;4.412;2023-02-04T13:51:25;13.60;99.90
27795;DHT22;15176;50.844;4.412;2023-02-04T13:53:51;13.60;99.90
27795;DHT22;15176;50.844;4.412;2023-02-04T13:56:16;13.70;99.90
27795;DHT22;15176;50.844;4.412;2023-02-04T13:58:42;13.50;99.90
27795;DHT22;15176;50.844;4.412;2023-02-04T14:01:13;13.60;99.90
27795;DHT22;15176;50.844;4.412;2023-02-04T14:03:39;13.70;99.90
27795;DHT22;15176;50.844;4.412;2023-02-04T14:06:05;13.60;99.90
27795;DHT22;15176;50.844;4.412;2023-02-04T14:08:31;13.60;99.90
27795;DHT22;15176;50.844;4.412;2023-02-04T14:10:57;13.50;99.90
27795;DHT22;15176;50.844;4.412;2023-02-04T14:13:23;13.60;99.90
27795;DHT22;15176;50.844;4.412;2023-02-04T14:15:48;13.50;99.90
27795;DHT22;15176;50.844;4.412;2023-02-04T14:18:16;13.50;99.90
27795;DHT22;15176;50.844;4.412;2023-02-04T14:20:43;13.20;99.90
27795;DHT22;15176;50.844;4.412;2023-02-04T14:23:09;13.20;99.90
27795;DHT22;15176;50.844;4.412;2023-02-04T14:25:37;13.40;99.90
27795;DHT22;15176;50.844;4.412;2023-02-04T14:28:04;13.50;99.90
27795;DHT22;15176;50.844;4.412;2023-02-04T14:30:30;13.50;99.90
27795;DHT22;15176;50.844;4.412;2023-02-04T14:32:57;13.40;99.90
27795;DHT22;15176;50.844;4.412;2023-02-04T14:35:24;13.40;99.90
27795;DHT22;15176;50.844;4.412;2023-02-04T14:37:50;13.50;99.90
27795;DHT22;15176;50.844;4.412;2023-02-04T14:40:18;13.50;99.90
27795;DHT22;15176;50.844;4.412;2023-02-04T14:42:47;13.60;99.90
27795;DHT22;15176;50.844;4.412;2023-02-04T14:45:14;13.60;99.90
27795;DHT22;15176;50.844;4.412;2023-02-04T14:47:40;13.50;99.90
27795;DHT22;15176;50.844;4.412;2023-02-04T14:50:10;13.30;99.90
27795;DHT22;15176;50.844;4.412;2023-02-04T14:52:37;13.30;99.90
27795;DHT22;15176;50.844;4.412;2023-02-04T14:55:02;13.30;99.90
27795;DHT22;15176;50.844;4.412;2023-02-04T14:57:28;13.10;99.90
27795;DHT22;15176;50.844;4.412;2023-02-04T14:59:54;13.30;99.90
27795;DHT22;15176;50.844;4.412;2023-02-04T15:02:21;13.40;99.90
27795;DHT22;15176;50.844;4.412;2023-02-04T15:04:49;13.50;99.90
27795;DHT22;15176;50.844;4.412;2023-02-04T15:07:15;13.20;99.90
27795;DHT22;15176;50.844;4.412;2023-02-04T15:09:41;13.30;99.90
27795;DHT22;15176;50.844;4.412;2023-02-04T15:12:09;13.40;99.90
27795;DHT22;15176;50.844;4.412;2023-02-04T15:14:35;13.50;99.90
27795;DHT22;15176;50.844;4.412;2023-02-04T15:17:01;13.60;99.90
27795;DHT22;15176;50.844;4.412;2023-02-04T15:19:27;13.60;99.90
27795;DHT22;15176;50.844;4.412;2023-02-04T15:21:52;13.50;99.90
27795;DHT22;15176;50.844;4.412;2023-02-04T15:24:19;13.20;99.90
27795;DHT22;15176;50.844;4.412;2023-02-04T15:26:45;13.20;99.90
27795;DHT22;15176;50.844;4.412;2023-02-04T15:29:11;13.40;99.90
27795;DHT22;15176;50.844;4.412;2023-02-04T15:31:36;13.40;99.90
27795;DHT22;15176;50.844;4.412;2023-02-04T15:34:02;13.50;99.90
27795;DHT22;15176;50.844;4.412;2023-02-04T15:36:28;13.60;99.90
27795;DHT22;15176;50.844;4.412;2023-02-04T15:38:54;13.30;99.90
27795;DHT22;15176;50.844;4.412;2023-02-04T15:41:19;13.20;99.90
27795;DHT22;15176;50.844;4.412;2023-02-04T15:43:46;13.10;99.90
27795;DHT22;15176;50.844;4.412;2023-02-04T15:46:13;13.20;99.90